Time;durP1;ratioP1;P1;durP2;ratioP2;P2;SDS_P1;SDS_P2;PMS_P1;PMS_P2;Temp;Humidity;BMP_temperature;BMP_pressure;BME280_temperature;BME280_humidity;BME280_pressure;Samples;Min_cycle;Max_cycle;Signal;HPM_P1;HPM_P2
2021/11/29 00:01:23;;;;;;;9.23;6.90;;;-2.10;99.90;-2.60;98729.00;;;;5018210;27;116966;-64
2021/11/29 00:03:49;;;;;;;6.40;5.80;;;-2.20;99.90;-2.60;98722.00;;;;5005612;27;88619;-63
2021/11/29 00:06:17;;;;;;;9.20;6.27;;;-2.20;99.90;-2.60;98722.00;;;;4998194;28;93106;-62
2021/11/29 00:08:47;;;;;;;10.83;7.23;;;-2.20;99.90;-2.60;98725.00;;;;4999006;28;88038;-63
2021/11/29 00:11:13;;;;;;;11.57;6.90;;;-2.20;99.90;-2.60;98717.00;;;;4996705;27;87642;-62
2021/11/29 00:13:39;;;;;;;8.53;6.20;;;-2.30;99.90;-2.70;98714.00;;;;4998641;28;98345;-62
2021/11/29 00:16:06;;;;;;;7.37;6.03;;;-2.30;99.90;-2.70;98725.00;;;;5000332;27;87654;-63
2021/11/29 00:18:33;;;;;;;12.53;7.40;;;-2.30;99.90;-2.80;98733.00;;;;5018878;27;87819;-63
2021/11/29 00:20:59;;;;;;;10.13;6.73;;;-2.30;99.90;-2.70;98740.00;;;;5012654;27;88631;-63
2021/11/29 00:23:24;;;;;;;8.00;6.43;;;-2.30;99.90;-2.80;98739.00;;;;4999222;28;87952;-64
2021/11/29 00:25:50;;;;;;;8.17;6.83;;;-2.30;99.90;-2.80;98756.00;;;;4999438;27;109680;-63
2021/11/29 00:28:16;;;;;;;11.13;6.80;;;-2.40;99.90;-2.80;98752.00;;;;4998991;28;87759;-63
2021/11/29 00:30:43;;;;;;;12.37;7.33;;;-2.40;99.90;-2.80;98761.00;;;;5002121;27;90215;-63
2021/11/29 00:33:11;;;;;;;7.63;6.83;;;-2.30;99.90;-2.80;98768.00;;;;4998878;27;112127;-63
2021/11/29 00:35:37;;;;;;;9.67;7.37;;;-2.60;99.90;-2.80;98764.00;;;;5016032;27;87813;-64
2021/11/29 00:38:05;;;;;;;9.63;7.33;;;-2.40;99.90;-2.90;98770.00;;;;5001778;27;87732;-63
2021/11/29 00:40:32;;;;;;;9.40;6.80;;;-2.40;99.90;-2.90;98773.00;;;;4998453;28;87721;-63
2021/11/29 00:42:57;;;;;;;13.50;8.03;;;-2.40;99.90;-2.90;98773.00;;;;4997932;28;102445;-64
2021/11/29 00:45:24;;;;;;;11.60;7.83;;;-2.50;99.90;-2.90;98764.00;;;;4998455;27;87690;-64
2021/11/29 00:47:50;;;;;;;9.53;6.97;;;-2.50;99.90;-2.90;98770.00;;;;4999622;27;87264;-63
2021/11/29 00:50:18;;;;;;;8.60;6.57;;;-2.50;99.90;-2.90;98771.00;;;;4998476;27;88184;-64
2021/11/29 00:52:44;;;;;;;6.93;6.00;;;-2.50;99.90;-2.80;98772.00;;;;4998552;27;87762;-64
2021/11/29 00:55:18;;;;;;;10.20;7.60;;;-2.40;99.90;-2.70;98768.00;;;;4998084;28;88766;-63
2021/11/29 00:57:46;;;;;;;10.13;7.40;;;-2.30;99.90;-2.60;98765.00;;;;4998589;28;87549;-63
2021/11/29 01:00:19;;;;;;;11.17;7.30;;;-2.20;99.90;-2.50;98775.00;;;;4997910;28;87938;-64
2021/11/29 01:02:46;;;;;;;17.77;8.30;;;-2.10;99.90;-2.40;98788.00;;;;4998380;27;87789;-63
2021/11/29 01:05:11;;;;;;;8.90;7.07;;;-2.00;99.90;-2.30;98796.00;;;;4997524;27;99247;-64
2021/11/29 01:07:38;;;;;;;11.00;9.40;;;-2.00;99.90;-2.20;98792.00;;;;4997845;27;108057;-64
2021/11/29 01:10:07;;;;;;;11.37;6.63;;;-1.90;99.90;-2.10;98800.00;;;;5012536;27;102643;-63
2021/11/29 01:12:33;;;;;;;10.37;7.77;;;-1.80;99.90;-2.00;98797.00;;;;5018779;27;87767;-64
2021/11/29 01:14:59;;;;;;;11.27;6.73;;;-1.70;99.90;-1.90;98801.00;;;;5017721;27;97927;-63
2021/11/29 01:17:25;;;;;;;9.33;6.20;;;-1.60;99.90;-1.90;98799.00;;;;5016136;27;87850;-64
2021/11/29 01:19:51;;;;;;;12.53;6.90;;;-1.60;99.90;-1.80;98791.00;;;;5016531;27;103305;-64
2021/11/29 01:22:17;;;;;;;11.83;7.07;;;-1.50;99.90;-1.70;98794.00;;;;5017238;27;118997;-63
2021/11/29 01:24:42;;;;;;;13.17;7.90;;;-1.40;99.90;-1.70;98781.00;;;;5018144;27;87677;-63
2021/11/29 01:27:09;;;;;;;11.83;7.40;;;-1.40;99.90;-1.70;98798.00;;;;5015726;27;108965;-63
2021/11/29 01:29:35;;;;;;;10.43;7.20;;;-0.60;99.90;-1.70;98782.00;;;;5017598;27;87823;-63
2021/11/29 01:32:02;;;;;;;9.07;7.07;;;-1.30;99.90;-1.70;98788.00;;;;5017545;27;87912;-64
2021/11/29 01:34:28;;;;;;;10.13;7.10;;;-1.40;99.90;-1.70;98784.00;;;;5018616;27;87875;-64
2021/11/29 01:36:53;;;;;;;15.13;8.47;;;-1.40;99.90;-1.70;98788.00;;;;5017608;27;87144;-64
2021/11/29 01:39:19;;;;;;;9.33;7.30;;;-1.40;99.90;-1.70;98791.00;;;;5017594;27;95383;-64
2021/11/29 01:41:47;;;;;;;10.17;7.37;;;-0.90;99.90;-1.70;98795.00;;;;5016612;27;87648;-64
2021/11/29 01:44:14;;;;;;;10.07;7.13;;;-1.40;99.90;-1.70;98796.00;;;;5017672;27;88882;-64
2021/11/29 01:46:42;;;;;;;12.47;7.07;;;-1.20;99.90;-1.70;98806.00;;;;5000394;27;87636;-65
2021/11/29 01:49:08;;;;;;;13.43;8.23;;;-0.80;99.90;-1.60;98794.00;;;;4997094;28;95430;-64
2021/11/29 01:51:34;;;;;;;11.57;7.33;;;-1.30;99.90;-1.60;98791.00;;;;4997543;27;116380;-64
2021/11/29 01:54:00;;;;;;;12.83;7.23;;;-1.30;99.90;-1.60;98808.00;;;;4997779;28;87979;-64
2021/11/29 01:56:25;;;;;;;8.27;7.00;;;-1.20;99.90;-1.50;98803.00;;;;4997484;27;87769;-64
2021/11/29 01:58:51;;;;;;;13.53;8.00;;;-1.10;99.90;-1.50;98806.00;;;;4996064;28;112460;-64
2021/11/29 02:01:21;;;;;;;11.00;8.07;;;-1.20;99.90;-1.40;98815.00;;;;4997325;27;98856;-64
2021/11/29 02:03:53;;;;;;;9.10;7.10;;;-1.10;99.90;-1.30;98816.00;;;;4997162;28;87838;-64
2021/11/29 02:06:19;;;;;;;9.10;7.23;;;-1.00;99.90;-1.30;98804.00;;;;5005850;27;87832;-64
2021/11/29 02:08:45;;;;;;;11.93;8.97;;;-0.90;99.90;-1.20;98804.00;;;;5016305;27;89003;-64
2021/11/29 02:11:11;;;;;;;14.73;9.60;;;0.10;99.90;-1.10;98806.00;;;;5016865;27;102255;-65
2021/11/29 02:13:37;;;;;;;16.00;9.40;;;-0.90;99.90;-1.10;98814.00;;;;5004663;27;110189;-64
2021/11/29 02:16:05;;;;;;;15.80;8.20;;;-0.80;99.90;-1.00;98807.00;;;;4996758;27;87790;-65
2021/11/29 02:18:34;;;;;;;12.23;8.57;;;-0.80;99.90;-1.00;98819.00;;;;4996910;27;87822;-65
2021/11/29 02:21:10;;;;;;;14.97;8.30;;;-0.60;99.90;-1.00;98821.00;;;;4997309;28;87738;-64
2021/11/29 02:23:40;;;;;;;11.33;8.43;;;-0.60;99.90;-0.90;98823.00;;;;4996996;27;87636;-64
2021/11/29 02:26:07;;;;;;;11.87;7.77;;;-0.60;99.90;-0.80;98823.00;;;;4997743;27;87110;-64
2021/11/29 02:28:35;;;;;;;12.00;7.87;;;-0.50;99.90;-0.80;98821.00;;;;4996390;28;88111;-64
2021/11/29 02:31:05;;;;;;;14.53;9.40;;;-0.40;99.90;-0.70;98824.00;;;;4997217;28;87869;-65
2021/11/29 02:33:31;;;;;;;12.23;8.53;;;-0.50;99.90;-0.70;98835.00;;;;4996253;27;88767;-64
2021/11/29 02:35:57;;;;;;;16.30;9.77;;;-0.40;99.90;-0.60;98824.00;;;;4997093;27;108227;-64
2021/11/29 02:38:23;;;;;;;17.57;10.40;;;-0.30;99.90;-0.60;98831.00;;;;5015280;27;117425;-64
2021/11/29 02:40:48;;;;;;;14.60;9.27;;;-0.30;99.90;-0.60;98834.00;;;;5015309;27;100359;-65
2021/11/29 02:43:14;;;;;;;12.03;8.70;;;-0.30;99.90;-0.60;98840.00;;;;5015559;27;93966;-63
2021/11/29 02:45:40;;;;;;;16.77;9.20;;;-0.30;99.90;-0.60;98839.00;;;;5015724;27;107752;-65
2021/11/29 02:48:06;;;;;;;13.80;8.53;;;-0.30;99.90;-0.50;98832.00;;;;5004113;27;88456;-64
2021/11/29 02:50:38;;;;;;;19.60;9.83;;;0.70;99.90;-0.50;98828.00;;;;4996659;27;87751;-64
2021/11/29 02:53:13;;;;;;;12.87;9.13;;;-0.30;99.90;-0.50;98834.00;;;;4997301;28;88151;-64
2021/11/29 02:55:39;;;;;;;15.60;9.30;;;-0.20;99.90;-0.50;98833.00;;;;4996171;27;96672;-64
2021/11/29 02:58:06;;;;;;;12.70;8.40;;;-0.20;99.90;-0.50;98833.00;;;;4995744;28;96164;-63
2021/11/29 03:00:34;;;;;;;13.30;8.27;;;-0.20;99.90;-0.50;98837.00;;;;4996220;27;89800;-64
2021/11/29 03:03:10;;;;;;;14.27;8.97;;;-0.10;99.90;-0.50;98832.00;;;;4996472;27;87763;-63
2021/11/29 03:05:36;;;;;;;12.60;8.40;;;-0.10;99.90;-0.50;98842.00;;;;4995796;27;95901;-65
2021/11/29 03:08:04;;;;;;;13.67;7.83;;;-0.10;99.90;-0.50;98837.00;;;;4996701;27;87821;-64
2021/11/29 03:10:31;;;;;;;8.67;6.23;;;-0.10;99.90;-0.50;98842.00;;;;5015543;27;88045;-65
2021/11/29 03:12:58;;;;;;;10.67;7.63;;;-0.20;99.90;-0.40;98840.00;;;;5012877;27;88109;-64
2021/11/29 03:15:25;;;;;;;16.10;9.90;;;-0.10;99.90;-0.50;98836.00;;;;5016906;27;86917;-63
2021/11/29 03:17:50;;;;;;;13.30;8.83;;;-0.10;99.90;-0.40;98852.00;;;;5015420;27;89067;-64
2021/11/29 03:20:16;;;;;;;15.20;10.00;;;-0.10;99.90;-0.40;98845.00;;;;5015582;27;89992;-64
2021/11/29 03:22:44;;;;;;;14.13;9.00;;;-0.20;99.90;-0.40;98857.00;;;;5015375;27;88731;-64
2021/11/29 03:25:12;;;;;;;10.97;8.03;;;0.80;99.90;-0.40;98857.00;;;;5016251;27;87790;-65
2021/11/29 03:27:40;;;;;;;12.07;8.20;;;-0.10;99.90;-0.40;98867.00;;;;5014658;27;88196;-64
2021/11/29 03:30:07;;;;;;;11.50;8.13;;;-0.10;99.90;-0.40;98861.00;;;;5015518;27;99695;-63
2021/11/29 03:32:34;;;;;;;12.90;8.20;;;-0.20;99.90;-0.40;98856.00;;;;5015644;27;87794;-64
2021/11/29 03:34:59;;;;;;;12.80;8.03;;;-0.10;99.90;-0.40;98855.00;;;;5015456;27;87920;-64
2021/11/29 03:37:25;;;;;;;13.30;8.83;;;-0.10;99.90;-0.30;98855.00;;;;4998293;27;117818;-63
2021/11/29 03:39:51;;;;;;;13.00;8.13;;;-0.10;99.90;-0.30;98849.00;;;;4994915;27;117627;-63
2021/11/29 03:42:17;;;;;;;13.53;8.80;;;0.00;99.90;-0.30;98849.00;;;;4995714;27;111610;-63
2021/11/29 03:44:42;;;;;;;11.73;8.33;;;0.10;99.90;-0.20;98847.00;;;;4994726;27;108681;-64
2021/11/29 03:47:08;;;;;;;11.77;7.23;;;0.10;99.90;-0.20;98852.00;;;;4995763;27;88898;-63
2021/11/29 03:49:35;;;;;;;17.67;9.53;;;0.10;99.90;-0.10;98843.00;;;;4995387;28;94670;-63
2021/11/29 03:52:01;;;;;;;14.93;9.03;;;0.10;99.90;-0.10;98847.00;;;;5009609;27;87846;-64
2021/11/29 03:54:26;;;;;;;16.20;9.57;;;0.30;99.90;-0.10;98841.00;;;;5015097;27;108532;-63
2021/11/29 03:56:52;;;;;;;13.97;8.83;;;0.30;99.90;-0.10;98849.00;;;;5014594;27;117643;-63
2021/11/29 03:59:18;;;;;;;14.83;9.67;;;0.20;99.90;0.00;98845.00;;;;5014610;27;118175;-64
2021/11/29 04:01:45;;;;;;;14.40;9.73;;;0.20;99.90;0.00;98848.00;;;;5015603;27;87828;-63
2021/11/29 04:04:11;;;;;;;15.87;9.17;;;0.30;99.90;0.00;98837.00;;;;5011125;27;87032;-63
2021/11/29 04:06:37;;;;;;;14.43;9.23;;;0.30;99.90;0.00;98844.00;;;;4995775;27;88496;-63
2021/11/29 04:09:04;;;;;;;13.10;9.37;;;0.40;99.90;0.00;98850.00;;;;4995564;27;89059;-63
2021/11/29 04:11:30;;;;;;;14.53;9.23;;;0.30;99.90;0.00;98853.00;;;;5014745;27;89060;-62
2021/11/29 04:13:59;;;;;;;14.30;9.60;;;0.30;99.90;0.10;98856.00;;;;5015352;27;87623;-62
2021/11/29 04:16:25;;;;;;;14.47;9.37;;;0.40;99.90;0.10;98847.00;;;;5013896;27;118553;-63
2021/11/29 04:18:50;;;;;;;16.93;8.23;;;0.50;99.90;0.10;98849.00;;;;5012437;27;116034;-63
2021/11/29 04:21:18;;;;;;;13.23;8.43;;;0.40;99.90;0.10;98846.00;;;;5011290;27;110304;-63
2021/11/29 04:23:47;;;;;;;15.23;9.63;;;0.40;99.90;0.20;98846.00;;;;4995482;27;88044;-63
2021/11/29 04:26:16;;;;;;;15.87;9.93;;;0.40;99.90;0.20;98860.00;;;;4995378;27;88306;-64
2021/11/29 04:28:43;;;;;;;16.03;9.10;;;0.60;99.90;0.30;98863.00;;;;4995489;28;88812;-63
2021/11/29 04:31:08;;;;;;;15.70;9.67;;;0.50;99.90;0.30;98857.00;;;;4995309;27;87899;-63
2021/11/29 04:33:36;;;;;;;15.00;9.57;;;0.60;99.90;0.30;98862.00;;;;5013325;27;94452;-63
2021/11/29 04:36:02;;;;;;;15.50;9.97;;;0.50;99.90;0.30;98870.00;;;;5013247;27;118292;-63
2021/11/29 04:38:28;;;;;;;13.40;8.40;;;0.60;99.90;0.30;98867.00;;;;5013717;27;102287;-64
2021/11/29 04:40:54;;;;;;;12.43;7.90;;;0.60;99.90;0.30;98869.00;;;;5018132;27;111776;-63
2021/11/29 04:43:20;;;;;;;13.73;9.70;;;0.60;99.90;0.40;98852.00;;;;5018030;27;109114;-63
2021/11/29 04:45:46;;;;;;;15.17;8.63;;;0.60;99.90;0.40;98862.00;;;;5017671;27;91756;-64
2021/11/29 04:48:12;;;;;;;14.30;7.90;;;0.70;99.90;0.40;98865.00;;;;5003659;27;88425;-65
2021/11/29 04:50:38;;;;;;;14.93;9.00;;;0.80;99.90;0.40;98869.00;;;;4997816;27;107980;-65
2021/11/29 04:53:04;;;;;;;13.33;9.50;;;0.70;99.90;0.40;98864.00;;;;4998155;28;109871;-66
2021/11/29 04:55:30;;;;;;;14.13;9.13;;;0.70;99.90;0.40;98860.00;;;;4997141;27;119031;-65
2021/11/29 04:57:56;;;;;;;19.10;9.63;;;0.70;99.90;0.40;98869.00;;;;4998425;27;88083;-66
2021/11/29 05:00:22;;;;;;;13.27;8.33;;;0.60;99.90;0.40;98874.00;;;;5007051;27;88590;-65
2021/11/29 05:02:48;;;;;;;11.20;8.47;;;0.60;99.90;0.40;98871.00;;;;4998615;27;87904;-65
2021/11/29 05:05:15;;;;;;;14.27;8.30;;;1.30;99.90;0.40;98882.00;;;;5005270;27;89324;-66
2021/11/29 05:07:41;;;;;;;14.30;9.00;;;0.70;99.90;0.40;98877.00;;;;5018654;27;88683;-66
2021/11/29 05:10:07;;;;;;;13.87;9.87;;;0.70;99.90;0.50;98882.00;;;;5016509;27;111433;-66
2021/11/29 05:12:34;;;;;;;16.53;9.00;;;0.70;99.90;0.50;98882.00;;;;5017841;27;87746;-66
2021/11/29 05:15:01;;;;;;;13.07;8.33;;;0.70;99.90;0.50;98883.00;;;;5018017;27;89206;-66
2021/11/29 05:17:27;;;;;;;18.23;10.17;;;0.80;99.90;0.50;98878.00;;;;5011305;27;100052;-66
2021/11/29 05:19:53;;;;;;;15.47;9.83;;;0.70;99.90;0.50;98884.00;;;;4995923;27;111182;-66
2021/11/29 05:22:19;;;;;;;20.63;10.20;;;0.80;99.90;0.50;98894.00;;;;4997693;28;87702;-66
2021/11/29 05:24:45;;;;;;;18.83;9.37;;;0.70;99.90;0.50;98891.00;;;;4996197;28;100861;-67
2021/11/29 05:27:11;;;;;;;14.63;9.20;;;1.70;99.90;0.50;98896.00;;;;4998160;27;101606;-66
2021/11/29 05:29:37;;;;;;;17.97;9.87;;;1.60;99.90;0.50;98904.00;;;;5018454;27;87815;-66
2021/11/29 05:32:03;;;;;;;13.27;9.37;;;0.80;99.90;0.50;98897.00;;;;5018136;27;87844;-66
2021/11/29 05:34:29;;;;;;;15.97;10.60;;;0.70;99.90;0.50;98897.00;;;;5017629;27;88023;-66
2021/11/29 05:36:54;;;;;;;19.40;10.90;;;0.80;99.90;0.50;98901.00;;;;5014227;27;116753;-66
2021/11/29 05:39:20;;;;;;;15.47;9.17;;;1.50;99.90;0.50;98906.00;;;;5011809;27;87793;-66
2021/11/29 05:41:47;;;;;;;18.73;10.70;;;0.80;99.90;0.50;98907.00;;;;4996962;27;109731;-66
2021/11/29 05:44:15;;;;;;;16.97;9.43;;;0.80;99.90;0.50;98924.00;;;;4995275;27;88290;-66
2021/11/29 05:46:41;;;;;;;14.97;8.83;;;0.80;99.90;0.50;98925.00;;;;4997346;27;88092;-67
2021/11/29 05:49:07;;;;;;;13.60;9.53;;;1.60;99.90;0.50;98927.00;;;;4994329;27;97424;-66
2021/11/29 05:51:32;;;;;;;17.23;9.83;;;0.80;99.90;0.60;98933.00;;;;4995623;27;109309;-66
2021/11/29 05:53:58;;;;;;;12.93;9.73;;;0.80;99.90;0.60;98930.00;;;;4997517;28;88425;-66
2021/11/29 05:56:24;;;;;;;13.13;9.57;;;0.90;99.90;0.60;98936.00;;;;4996611;27;117861;-66
2021/11/29 05:58:50;;;;;;;13.70;8.87;;;1.50;99.90;0.60;98942.00;;;;4997104;28;88036;-66
2021/11/29 06:01:16;;;;;;;12.23;8.30;;;0.80;99.90;0.60;98934.00;;;;4997566;27;88102;-66
2021/11/29 06:03:44;;;;;;;15.70;9.67;;;1.40;99.90;0.60;98946.00;;;;4996833;28;87829;-67
2021/11/29 06:06:11;;;;;;;14.93;9.83;;;1.00;99.90;0.60;98942.00;;;;4997253;27;88924;-67
2021/11/29 06:08:37;;;;;;;16.40;9.73;;;0.90;99.90;0.60;98945.00;;;;5014292;27;87951;-67
2021/11/29 06:11:02;;;;;;;13.73;9.23;;;0.90;99.90;0.60;98950.00;;;;5015669;27;108837;-68
2021/11/29 06:13:28;;;;;;;18.60;11.93;;;0.90;99.90;0.60;98955.00;;;;5015079;27;119804;-68
2021/11/29 06:15:54;;;;;;;14.00;10.70;;;0.90;99.90;0.60;98955.00;;;;5014951;27;116764;-66
2021/11/29 06:18:20;;;;;;;17.47;11.13;;;0.90;99.90;0.60;98960.00;;;;5005245;27;88034;-65
2021/11/29 06:20:45;;;;;;;16.23;11.33;;;1.70;99.90;0.70;98961.00;;;;4993370;27;90385;-66
2021/11/29 06:23:11;;;;;;;19.50;10.73;;;1.90;99.90;0.70;98965.00;;;;4992128;27;108866;-66
2021/11/29 06:25:38;;;;;;;17.63;10.53;;;1.00;99.90;0.70;98971.00;;;;4993244;27;117413;-67
2021/11/29 06:28:06;;;;;;;16.73;10.77;;;1.70;99.90;0.70;98976.00;;;;4993254;27;87909;-67
2021/11/29 06:30:32;;;;;;;16.10;9.97;;;1.00;99.90;0.70;98984.00;;;;4994098;27;87023;-67
2021/11/29 06:32:58;;;;;;;19.03;10.03;;;0.90;99.90;0.70;98984.00;;;;4993820;27;88535;-67
2021/11/29 06:35:23;;;;;;;14.63;10.37;;;1.00;99.90;0.70;98987.00;;;;4992602;27;111886;-67
2021/11/29 06:38:02;;;;;;;18.03;11.97;;;0.90;99.90;0.70;98988.00;;;;4996045;27;113143;-67
2021/11/29 06:40:29;;;;;;;20.27;10.50;;;1.00;99.90;0.70;99000.00;;;;4992009;27;87883;-66
2021/11/29 06:42:55;;;;;;;18.63;11.17;;;1.10;99.90;0.70;98982.00;;;;4992649;27;96610;-67
2021/11/29 06:45:22;;;;;;;16.23;10.53;;;1.60;99.90;0.70;98990.00;;;;4993376;27;88118;-66
2021/11/29 06:47:48;;;;;;;18.97;11.30;;;1.00;99.90;0.70;98989.00;;;;4992517;27;87801;-66
2021/11/29 06:50:15;;;;;;;17.97;11.67;;;1.00;99.90;0.70;98991.00;;;;4992797;27;88656;-66
2021/11/29 06:52:40;;;;;;;19.80;11.50;;;1.80;99.90;0.70;99003.00;;;;4994659;27;103857;-66
2021/11/29 06:55:11;;;;;;;17.87;10.83;;;0.90;99.90;0.60;98983.00;;;;4994653;27;88172;-66
2021/11/29 06:57:37;;;;;;;18.43;11.37;;;0.50;99.90;0.60;99009.00;;;;4992509;27;87984;-67
2021/11/29 07:00:06;;;;;;;16.43;11.50;;;0.80;99.90;0.50;99006.00;;;;4991578;27;108084;-65
2021/11/29 07:02:31;;;;;;;18.53;12.00;;;0.80;99.90;0.50;99006.00;;;;4994022;27;90535;-66
2021/11/29 07:04:58;;;;;;;17.87;11.43;;;1.50;99.90;0.50;99009.00;;;;4991924;27;108738;-65
2021/11/29 07:07:24;;;;;;;22.30;11.63;;;1.20;99.90;0.50;99012.00;;;;4994926;27;88820;-66
2021/11/29 07:09:50;;;;;;;24.23;13.53;;;1.60;99.90;0.50;99014.00;;;;4991223;27;108205;-66
2021/11/29 07:12:16;;;;;;;20.67;12.77;;;1.10;99.90;0.50;99019.00;;;;4993933;27;89054;-66
2021/11/29 07:14:42;;;;;;;18.50;11.80;;;1.60;99.90;0.50;99007.00;;;;4992521;27;87958;-65
2021/11/29 07:17:08;;;;;;;19.50;11.50;;;1.50;99.90;0.50;98998.00;;;;4997934;27;94217;-65
2021/11/29 07:19:37;;;;;;;17.87;12.10;;;1.60;99.90;0.50;99013.00;;;;4996931;27;98384;-65
2021/11/29 07:22:05;;;;;;;22.93;12.47;;;1.60;99.90;0.40;99010.00;;;;4993263;27;88219;-65
2021/11/29 07:24:30;;;;;;;21.07;11.90;;;0.90;99.90;0.40;99024.00;;;;4991862;27;87993;-65
2021/11/29 07:26:57;;;;;;;15.33;11.57;;;0.80;99.90;0.40;99014.00;;;;4990525;27;113639;-65
2021/11/29 07:29:22;;;;;;;21.03;12.33;;;0.70;99.90;0.30;99020.00;;;;4992827;27;87827;-65
2021/11/29 07:31:48;;;;;;;18.87;11.87;;;0.60;99.90;0.30;99019.00;;;;4993520;27;117803;-67
2021/11/29 07:34:13;;;;;;;20.20;11.40;;;0.70;99.90;0.20;99027.00;;;;4990942;27;117711;-66
2021/11/29 07:36:39;;;;;;;21.03;13.40;;;0.90;99.90;0.20;99035.00;;;;4992597;27;112103;-65
2021/11/29 07:39:07;;;;;;;21.40;12.83;;;1.10;99.90;0.20;99030.00;;;;4992352;27;87879;-66
2021/11/29 07:41:33;;;;;;;20.10;13.13;;;1.10;99.90;0.30;99026.00;;;;4991692;27;88749;-66
2021/11/29 07:43:59;;;;;;;24.23;14.03;;;0.60;99.90;0.40;99034.00;;;;4991813;27;88402;-66
2021/11/29 07:46:25;;;;;;;26.27;14.83;;;0.90;99.90;0.50;99037.00;;;;4994566;27;87700;-66
2021/11/29 07:48:51;;;;;;;24.20;15.27;;;0.70;99.90;0.60;99042.00;;;;4992032;27;87871;-66
2021/11/29 07:51:16;;;;;;;20.23;14.10;;;1.50;99.90;0.60;99032.00;;;;4990476;27;118443;-66
2021/11/29 07:53:42;;;;;;;18.90;13.03;;;1.60;99.90;0.70;99032.00;;;;4989957;27;119638;-66
2021/11/29 07:56:08;;;;;;;22.73;14.13;;;1.80;99.90;0.80;99038.00;;;;4992141;27;87824;-66
2021/11/29 07:58:34;;;;;;;22.33;13.57;;;1.10;99.90;0.80;99048.00;;;;4996452;27;87920;-67
2021/11/29 08:00:59;;;;;;;18.90;12.63;;;1.20;99.90;0.90;99040.00;;;;4988472;27;115816;-66
2021/11/29 08:03:25;;;;;;;22.60;12.60;;;1.20;99.90;0.90;99044.00;;;;4989452;27;97920;-67
2021/11/29 08:05:51;;;;;;;25.13;12.47;;;1.20;99.90;0.90;99054.00;;;;4993232;27;113680;-67
2021/11/29 08:08:17;;;;;;;16.40;10.43;;;0.60;99.90;0.90;99062.00;;;;4996178;27;108894;-68
2021/11/29 08:10:43;;;;;;;13.00;9.43;;;2.20;99.90;1.00;99063.00;;;;4990593;27;88709;-68
2021/11/29 08:13:12;;;;;;;19.67;11.97;;;2.00;99.90;1.00;99064.00;;;;4992665;27;117694;-69
2021/11/29 08:15:39;;;;;;;27.23;12.90;;;1.30;99.90;1.00;99065.00;;;;4994324;27;88883;-68
2021/11/29 08:18:06;;;;;;;20.17;10.37;;;1.60;99.90;1.10;99056.00;;;;4994873;27;96807;-67
2021/11/29 08:20:32;;;;;;;18.13;11.57;;;1.40;99.90;1.10;99068.00;;;;4994210;27;98791;-67
2021/11/29 08:22:57;;;;;;;17.90;10.00;;;2.30;99.90;1.10;99068.00;;;;4995304;27;99214;-67
2021/11/29 08:25:23;;;;;;;18.23;11.80;;;1.40;99.90;1.20;99069.00;;;;4998170;27;112750;-67
2021/11/29 08:27:49;;;;;;;20.00;10.97;;;1.60;99.90;1.20;99067.00;;;;4997642;27;87919;-67
2021/11/29 08:30:18;;;;;;;19.93;10.50;;;1.50;99.90;1.20;99085.00;;;;4992633;27;90460;-67
2021/11/29 08:32:44;;;;;;;17.63;11.00;;;1.50;99.90;1.20;99081.00;;;;4995715;27;89097;-67
2021/11/29 08:35:15;;;;;;;17.40;11.17;;;2.80;99.90;1.30;99077.00;;;;5001971;27;97423;-67
2021/11/29 08:37:46;;;;;;;17.73;9.90;;;2.50;99.90;1.30;99080.00;;;;5007800;27;87854;-67
2021/11/29 08:40:25;;;;;;;19.27;10.73;;;1.60;99.90;1.30;99082.00;;;;4994337;27;89657;-66
2021/11/29 08:42:52;;;;;;;15.60;10.10;;;1.60;99.90;1.40;99091.00;;;;4998432;27;89584;-67
2021/11/29 08:45:18;;;;;;;16.97;11.37;;;1.60;99.90;1.40;99092.00;;;;4993474;27;93057;-67
2021/11/29 08:47:44;;;;;;;18.27;10.63;;;1.70;99.90;1.40;99091.00;;;;4996227;27;87797;-67
2021/11/29 08:50:10;;;;;;;21.60;11.37;;;1.70;99.90;1.40;99096.00;;;;4993000;27;117228;-67
2021/11/29 08:52:37;;;;;;;21.07;11.77;;;2.10;99.90;1.50;99101.00;;;;4993635;27;90959;-67
2021/11/29 08:55:09;;;;;;;15.00;10.53;;;2.50;99.90;1.50;99091.00;;;;5001005;27;87726;-67
2021/11/29 08:57:36;;;;;;;18.13;10.17;;;1.80;99.90;1.50;99097.00;;;;4994315;27;93625;-67
2021/11/29 09:00:10;;;;;;;16.40;10.73;;;1.80;99.90;1.50;99098.00;;;;4994338;27;88089;-67
2021/11/29 09:02:36;;;;;;;14.37;10.00;;;2.10;99.90;1.50;99111.00;;;;4992253;27;89584;-67
2021/11/29 09:05:04;;;;;;;18.83;10.57;;;1.80;99.90;1.60;99106.00;;;;4991599;27;88878;-66
2021/11/29 09:07:29;;;;;;;19.10;10.37;;;2.30;99.90;1.60;99110.00;;;;4994114;27;96337;-66
2021/11/29 09:09:55;;;;;;;13.40;9.53;;;1.80;99.90;1.60;99116.00;;;;4993657;27;87897;-66
2021/11/29 09:12:21;;;;;;;19.60;11.23;;;1.80;99.90;1.60;99127.00;;;;4992840;27;88316;-66
2021/11/29 09:14:47;;;;;;;20.97;10.23;;;2.20;99.90;1.60;99136.00;;;;4992884;27;112020;-66
2021/11/29 09:17:12;;;;;;;18.83;11.00;;;1.90;99.90;1.60;99136.00;;;;4993760;27;107839;-65
2021/11/29 09:19:39;;;;;;;21.97;10.43;;;1.90;99.90;1.60;99128.00;;;;4992794;27;118007;-65
2021/11/29 09:22:04;;;;;;;13.83;9.83;;;1.90;99.90;1.70;99125.00;;;;5006845;27;87980;-67
2021/11/29 09:24:30;;;;;;;14.00;9.27;;;2.00;99.90;1.70;99129.00;;;;4992749;27;111855;-66
2021/11/29 09:26:58;;;;;;;18.63;10.93;;;1.90;99.90;1.70;99116.00;;;;5002725;27;87796;-65
2021/11/29 09:29:24;;;;;;;20.13;10.90;;;1.90;99.90;1.70;99127.00;;;;4993309;27;88967;-68
2021/11/29 09:31:50;;;;;;;22.30;11.70;;;1.90;99.90;1.80;99128.00;;;;4978385;27;117364;-66
2021/11/29 09:34:15;;;;;;;21.27;12.57;;;2.00;99.90;1.80;99123.00;;;;4994065;27;112635;-66
2021/11/29 09:36:41;;;;;;;21.30;12.20;;;2.70;99.90;1.80;99119.00;;;;4993335;27;108361;-67
2021/11/29 09:39:07;;;;;;;17.57;10.97;;;2.10;99.90;1.80;99114.00;;;;5003657;27;89025;-66
2021/11/29 09:41:34;;;;;;;20.67;12.87;;;2.20;99.90;1.90;99109.00;;;;4997947;27;87766;-66
2021/11/29 09:44:02;;;;;;;22.07;12.67;;;2.10;99.90;1.90;99112.00;;;;4994404;27;87953;-66
2021/11/29 09:46:29;;;;;;;20.63;11.47;;;2.10;99.90;1.90;99122.00;;;;4991944;27;87182;-66
2021/11/29 09:48:55;;;;;;;17.67;12.40;;;1.40;99.90;1.90;99115.00;;;;5002445;27;89073;-67
2021/11/29 09:51:21;;;;;;;16.30;10.77;;;2.10;99.90;1.90;99120.00;;;;4996649;27;87896;-67
2021/11/29 09:53:47;;;;;;;18.30;11.57;;;2.10;99.90;1.90;99113.00;;;;4992775;27;90590;-66
2021/11/29 09:56:13;;;;;;;16.97;11.43;;;2.20;99.90;1.90;99111.00;;;;4993560;27;109336;-66
2021/11/29 09:58:38;;;;;;;20.87;12.30;;;2.10;99.90;1.90;99115.00;;;;5000460;27;107803;-67
2021/11/29 10:01:06;;;;;;;25.07;11.60;;;2.20;99.90;1.90;99103.00;;;;4994002;27;88792;-66
2021/11/29 10:03:32;;;;;;;21.73;13.30;;;2.20;99.90;1.90;99113.00;;;;4992768;27;111690;-66
2021/11/29 10:05:58;;;;;;;17.83;11.77;;;2.20;99.90;1.90;99118.00;;;;4993937;27;87726;-66
2021/11/29 10:08:36;;;;;;;18.40;11.13;;;2.20;99.90;1.90;99115.00;;;;4992748;27;89268;-67
2021/11/29 10:11:14;;;;;;;21.20;13.07;;;2.10;99.90;1.90;99118.00;;;;4993428;27;88569;-67
2021/11/29 10:13:56;;;;;;;24.37;14.23;;;2.20;99.90;2.20;99111.00;;;;4993523;27;87973;-66
2021/11/29 10:16:43;;;;;;;21.50;14.67;;;2.30;99.90;2.30;99111.00;;;;4995934;27;87651;-67
2021/11/29 10:19:31;;;;;;;16.67;12.03;;;2.50;99.90;2.50;99126.00;;;;4994939;27;89026;-66
2021/11/29 10:22:18;;;;;;;20.17;14.77;;;2.60;99.90;2.80;99110.00;;;;4991122;27;90594;-66
2021/11/29 10:24:45;;;;;;;24.27;13.20;;;2.90;99.90;3.10;99117.00;;;;4993270;27;87979;-66
2021/11/29 10:27:12;;;;;;;16.80;12.60;;;3.10;99.90;3.30;99120.00;;;;4994913;27;88984;-66
2021/11/29 10:29:37;;;;;;;21.27;12.40;;;3.40;99.90;3.60;99121.00;;;;4992599;27;97290;-67
2021/11/29 10:32:03;;;;;;;16.53;10.93;;;3.60;99.90;3.90;99118.00;;;;4983383;28;89691;-66
2021/11/29 10:34:32;;;;;;;20.23;11.57;;;3.90;99.90;4.20;99129.00;;;;4992643;27;94838;-66
2021/11/29 10:37:12;;;;;;;18.73;10.80;;;4.20;99.90;4.40;99125.00;;;;4993056;27;86833;-66
2021/11/29 10:39:44;;;;;;;22.00;12.20;;;4.50;99.90;4.50;99120.00;;;;4992979;27;87992;-66
2021/11/29 10:42:14;;;;;;;16.90;10.37;;;4.80;99.90;4.70;99119.00;;;;4993154;27;88935;-66
2021/11/29 10:44:43;;;;;;;17.17;10.30;;;4.70;99.90;4.90;99124.00;;;;4994662;27;88741;-66
2021/11/29 10:47:14;;;;;;;16.00;10.07;;;5.00;99.90;5.10;99124.00;;;;4996985;27;87947;-66
2021/11/29 10:49:45;;;;;;;15.90;10.40;;;5.10;99.90;5.30;99131.00;;;;4992272;27;100897;-66
2021/11/29 10:52:16;;;;;;;14.90;9.67;;;5.40;99.90;5.40;99137.00;;;;4992070;27;101642;-67